Cheshire, Oregon
Current Conditions -  °F | °C
As of 3:54 AM on Monday 24 Nov 2014 (Local Time) from KEUG Reporting Station
Clear Clear  
Wind Chill: 39°   Ceiling: Unl
Heat Index: 44°   Visibility: 10mi
Dew Point: 39°   Wind: 9mph
Humidity: 82%   Direction: 190°S
Pressure: 30.38"   Gusts: NA
Location:  44.19°N, 123.29°W
Report Text: KEUG 241154Z AUTO 19008KT 10SM CLR 07/04 A3038 RMK AO2 SLP289 70001 T00670039 10089 20056 58002
Loading
Personal Weather Stations






























Interactive Weather Map New forecast layout! Learn more

10-Day Weather Forecast

Advertisements
Track Severe Weather on mobile